createdAt,value
2022-08-05T00:01:36.347Z,8.70
2022-08-05T00:04:17.019Z,11.48
2022-08-05T00:06:45.446Z,8.77
2022-08-05T00:09:15.654Z,8.77
2022-08-05T00:11:47.479Z,18.52
2022-08-05T00:14:16.906Z,5.88
2022-08-05T00:16:52.595Z,12.80
2022-08-05T00:19:23.355Z,17.90
2022-08-05T00:21:53.931Z,10.65
2022-08-05T00:24:24.715Z,15.43
2022-08-05T00:26:53.417Z,14.48
2022-08-05T00:29:22.564Z,9.05
2022-08-05T00:32:10.632Z,10.95
2022-08-05T00:35:05.367Z,14.65
2022-08-05T00:37:50.464Z,17.83
2022-08-05T00:40:26.827Z,10.02
2022-08-05T00:42:59.922Z,18.33
2022-08-05T00:45:38.254Z,13.75
2022-08-05T00:48:07.595Z,30.08
2022-08-05T00:50:35.739Z,14.55
2022-08-05T00:53:03.386Z,15.35
2022-08-05T00:55:42.602Z,20.08
2022-08-05T00:58:13.229Z,14.25
2022-08-05T01:00:42.246Z,24.95
2022-08-05T01:03:12.614Z,17.45
2022-08-05T01:05:54.829Z,19.67
2022-08-05T01:08:30.267Z,19.25
2022-08-05T01:11:37.359Z,22.55
2022-08-05T01:14:15.768Z,22.30
2022-08-05T01:16:49.647Z,30.38
2022-08-05T01:19:36.548Z,33.15
2022-08-05T01:22:40.425Z,32.63
2022-08-05T01:25:39.680Z,28.50
2022-08-05T01:28:39.702Z,23.38
2022-08-05T01:31:28.589Z,28.38
2022-08-05T01:34:05.029Z,23.92
2022-08-05T01:36:47.000Z,27.40
2022-08-05T01:39:46.103Z,36.25
2022-08-05T01:42:07.155Z,29.60
2022-08-05T01:44:38.169Z,24.45
2022-08-05T01:47:07.119Z,29.88
2022-08-05T01:50:00.092Z,29.17
2022-08-05T01:52:29.279Z,31.48
2022-08-05T01:55:01.815Z,27.10
2022-08-05T01:58:10.638Z,24.15
2022-08-05T02:00:30.097Z,25.27
2022-08-05T02:03:16.322Z,29.80
2022-08-05T02:06:01.041Z,33.10
2022-08-05T02:08:32.376Z,31.48
2022-08-05T02:11:14.560Z,31.60
2022-08-05T02:14:12.921Z,26.10
2022-08-05T02:16:53.503Z,31.38
2022-08-05T02:19:47.022Z,27.35
2022-08-05T02:22:44.003Z,36.92
2022-08-05T02:25:49.253Z,28.13
2022-08-05T02:28:28.833Z,32.28
2022-08-05T02:31:07.502Z,29.70
2022-08-05T02:33:42.821Z,29.30
2022-08-05T02:36:15.688Z,24.35
2022-08-05T02:38:53.469Z,26.73
2022-08-05T02:41:23.136Z,23.02
2022-08-05T02:44:06.241Z,26.02
2022-08-05T02:46:58.637Z,29.02
2022-08-05T02:49:40.706Z,27.27
2022-08-05T02:52:11.591Z,27.42
2022-08-05T02:54:42.801Z,25.85
2022-08-05T02:58:11.235Z,32.70
2022-08-05T03:00:10.117Z,21.77
2022-08-05T03:02:40.844Z,14.32
2022-08-05T03:05:12.533Z,25.75
2022-08-05T03:08:04.620Z,16.30
2022-08-05T03:10:29.230Z,19.02
2022-08-05T03:15:24.290Z,20.10
2022-08-05T03:17:57.785Z,16.02
2022-08-05T03:20:25.302Z,18.00
2022-08-05T03:22:57.088Z,26.88
2022-08-05T03:25:33.752Z,22.65
2022-08-05T03:28:14.661Z,19.42
2022-08-05T03:30:48.678Z,21.67
2022-08-05T03:33:17.318Z,21.77
2022-08-05T03:35:49.931Z,17.17
2022-08-05T03:38:32.714Z,20.35
2022-08-05T03:41:08.412Z,22.77
2022-08-05T03:44:08.996Z,18.15
2022-08-05T03:46:26.782Z,26.70
2022-08-05T03:48:57.890Z,20.05
2022-08-05T03:52:37.323Z,14.15
2022-08-05T03:55:53.615Z,20.58
2022-08-05T03:57:41.749Z,21.48
2022-08-05T04:00:16.270Z,22.83
2022-08-05T04:02:52.030Z,15.48
2022-08-05T04:05:33.615Z,20.98
2022-08-05T04:08:29.674Z,16.50
2022-08-05T04:10:55.810Z,19.58
2022-08-05T04:13:23.705Z,21.92
2022-08-05T04:16:02.731Z,17.70
2022-08-05T04:18:34.522Z,24.60
2022-08-05T04:21:03.987Z,18.77
2022-08-05T04:23:57.282Z,26.52
2022-08-05T04:26:19.344Z,21.38
2022-08-05T04:28:51.249Z,16.30
2022-08-05T04:31:20.076Z,20.45
2022-08-05T04:34:17.691Z,18.70
2022-08-05T04:36:49.588Z,36.10
2022-08-05T04:39:18.413Z,18.80
2022-08-05T04:41:48.212Z,18.60
2022-08-05T04:44:21.004Z,18.48
2022-08-05T04:46:51.759Z,26.17
2022-08-05T04:49:24.913Z,19.30
2022-08-05T04:52:06.168Z,21.42
2022-08-05T04:54:35.293Z,23.70
2022-08-05T04:57:02.570Z,23.20
2022-08-05T04:59:36.698Z,18.63
2022-08-05T05:02:37.369Z,19.30
2022-08-05T05:05:02.295Z,17.77
2022-08-05T05:07:32.306Z,23.77
2022-08-05T05:10:04.565Z,20.60
2022-08-05T05:12:32.307Z,22.98
2022-08-05T05:14:59.900Z,19.08
2022-08-05T05:17:57.100Z,19.15
2022-08-05T05:20:28.670Z,23.65
2022-08-05T05:22:57.442Z,19.02
2022-08-05T05:25:32.765Z,16.67
2022-08-05T05:28:08.412Z,24.55
2022-08-05T05:30:37.031Z,16.95
2022-08-05T05:33:16.067Z,15.27
2022-08-05T05:35:47.709Z,17.35
2022-08-05T05:38:22.843Z,16.08
2022-08-05T05:40:58.779Z,15.32
2022-08-05T05:43:57.246Z,20.27
2022-08-05T05:46:17.203Z,24.92
2022-08-05T05:48:48.377Z,24.55
2022-08-05T05:51:23.619Z,22.05
2022-08-05T05:53:57.193Z,17.35
2022-08-05T05:59:07.785Z,16.08
2022-08-05T06:01:38.963Z,18.55
2022-08-05T06:04:17.627Z,16.98
2022-08-05T06:06:47.369Z,17.90
2022-08-05T06:09:27.436Z,14.82
2022-08-05T06:12:10.302Z,18.05
2022-08-05T06:14:40.179Z,16.13
2022-08-05T06:17:22.388Z,16.05
2022-08-05T06:20:09.022Z,19.48
2022-08-05T06:22:49.134Z,19.05
2022-08-05T06:28:54.172Z,18.52
2022-08-05T06:41:13.428Z,8.07
2022-08-05T06:44:00.215Z,12.50
2022-08-05T06:54:43.903Z,13.35
2022-08-05T06:58:20.098Z,11.15
2022-08-05T07:02:02.324Z,13.68
2022-08-05T07:08:54.798Z,15.95
2022-08-05T07:11:37.095Z,12.77
2022-08-05T07:14:44.331Z,11.75
2022-08-05T07:20:48.383Z,12.18
2022-08-05T07:23:30.477Z,9.45
2022-08-05T07:25:58.943Z,15.43
2022-08-05T07:31:40.774Z,11.98
2022-08-05T07:37:59.085Z,12.18
2022-08-05T07:38:12.361Z,10.57
2022-08-05T07:40:32.972Z,8.65
2022-08-05T07:43:04.728Z,7.47
2022-08-05T07:45:57.180Z,10.93
2022-08-05T07:49:00.894Z,9.30
2022-08-05T07:51:23.814Z,11.02
2022-08-05T07:54:08.289Z,11.13
2022-08-05T07:59:53.632Z,15.93
2022-08-05T08:02:31.287Z,5.68
2022-08-05T08:05:17.473Z,7.05
2022-08-05T08:07:59.223Z,7.30
2022-08-05T08:10:28.340Z,9.25
2022-08-05T08:12:58.494Z,11.35
2022-08-05T08:15:37.451Z,10.10
2022-08-05T08:18:14.210Z,7.03
2022-08-05T08:21:01.078Z,5.75
2022-08-05T08:24:02.165Z,8.55
2022-08-05T08:26:17.176Z,9.38
2022-08-05T08:29:45.483Z,8.10
2022-08-05T08:31:53.638Z,13.15
2022-08-05T08:39:49.410Z,9.70
2022-08-05T08:42:34.332Z,8.30
2022-08-05T08:45:19.858Z,10.57
2022-08-05T08:48:12.725Z,8.20
2022-08-05T08:51:03.934Z,13.80
2022-08-05T08:53:40.202Z,11.30
2022-08-05T08:56:11.823Z,9.40
2022-08-05T08:58:47.543Z,13.60
2022-08-05T09:01:18.253Z,10.95
2022-08-05T09:03:57.555Z,7.70
2022-08-05T09:06:32.492Z,9.20
2022-08-05T09:09:04.061Z,10.98
2022-08-05T09:11:51.884Z,8.38
2022-08-05T09:14:56.936Z,7.53
2022-08-05T09:17:40.441Z,8.05
2022-08-05T09:20:02.665Z,15.07
2022-08-05T09:23:19.405Z,9.23
2022-08-05T09:26:01.239Z,10.13
2022-08-05T09:28:33.184Z,11.27
2022-08-05T09:31:22.753Z,11.45
2022-08-05T09:34:03.300Z,7.00
2022-08-05T09:36:55.602Z,7.63
2022-08-05T09:39:41.298Z,9.02
2022-08-05T09:42:23.021Z,9.25
2022-08-05T09:44:56.113Z,11.25
2022-08-05T09:47:47.994Z,9.70
2022-08-05T09:50:37.617Z,10.70
2022-08-05T09:53:06.459Z,9.15
2022-08-05T09:55:56.895Z,10.43
2022-08-05T09:58:25.697Z,7.35
2022-08-05T10:01:13.312Z,9.02
2022-08-05T10:04:00.582Z,14.10
2022-08-05T10:06:28.545Z,7.65
2022-08-05T10:09:09.728Z,8.60
2022-08-05T10:12:37.010Z,9.18
2022-08-05T10:15:23.237Z,7.90
2022-08-05T10:18:12.343Z,10.80
2022-08-05T10:20:50.743Z,8.35
2022-08-05T10:23:55.764Z,7.00
2022-08-05T10:26:33.814Z,7.45
2022-08-05T10:32:49.509Z,9.02
2022-08-05T10:33:02.593Z,9.57
2022-08-05T10:35:59.898Z,8.15
2022-08-05T10:47:05.081Z,4.55
2022-08-05T10:50:48.862Z,10.82
2022-08-05T11:01:54.087Z,4.32
2022-08-05T11:48:11.568Z,3.80
2022-08-05T11:50:39.838Z,3.53
2022-08-05T11:53:09.844Z,3.22
2022-08-05T11:55:37.482Z,6.60
2022-08-05T11:58:08.374Z,6.13
2022-08-05T12:00:41.285Z,3.97
2022-08-05T12:03:29.461Z,6.97
2022-08-05T12:06:02.150Z,7.25
2022-08-05T12:08:40.676Z,13.68
2022-08-05T12:11:28.358Z,10.65
2022-08-05T12:14:10.307Z,4.32
2022-08-05T12:16:45.475Z,7.45
2022-08-05T12:20:25.340Z,8.25
2022-08-05T12:22:03.200Z,6.88
2022-08-05T12:24:49.466Z,5.35
2022-08-05T12:27:25.309Z,11.05
2022-08-05T12:30:09.379Z,7.65
2022-08-05T12:32:53.114Z,5.95
2022-08-05T12:35:39.450Z,10.18
2022-08-05T12:38:10.341Z,7.68
2022-08-05T12:40:38.529Z,4.13
2022-08-05T12:43:10.979Z,5.72
2022-08-05T12:45:48.336Z,7.75
2022-08-05T12:48:32.176Z,4.38
2022-08-05T12:52:09.971Z,3.80
2022-08-05T12:54:14.849Z,4.50
2022-08-05T12:56:53.188Z,8.88
2022-08-05T12:59:27.534Z,13.05
2022-08-05T13:02:12.367Z,5.60
2022-08-05T13:04:52.619Z,7.13
2022-08-05T13:07:55.963Z,4.70
2022-08-05T13:10:14.551Z,9.20
2022-08-05T13:12:51.187Z,7.78
2022-08-05T13:15:41.428Z,13.15
2022-08-05T13:18:21.116Z,5.35
2022-08-05T13:20:51.765Z,8.15
2022-08-05T13:23:23.122Z,6.15
2022-08-05T13:25:59.386Z,5.03
2022-08-05T13:28:29.551Z,10.93
2022-08-05T13:31:11.106Z,4.40
2022-08-05T13:34:24.148Z,7.30
2022-08-05T13:36:30.175Z,3.90
2022-08-05T13:38:58.620Z,6.50
2022-08-05T13:41:26.194Z,6.43
2022-08-05T13:44:05.275Z,5.10
2022-08-05T13:46:37.887Z,2.78
2022-08-05T13:49:18.518Z,3.00
2022-08-05T13:51:47.021Z,3.72
2022-08-05T13:54:15.953Z,5.57
2022-08-05T13:56:50.765Z,2.17
2022-08-05T13:59:27.166Z,2.33
2022-08-05T14:02:00.308Z,4.95
2022-08-05T14:04:49.555Z,3.22
2022-08-05T14:07:55.519Z,6.50
2022-08-05T14:10:30.820Z,5.35
2022-08-05T14:12:59.367Z,2.75
2022-08-05T14:16:05.260Z,2.95
2022-08-05T14:18:18.468Z,9.15
2022-08-05T14:20:54.773Z,5.13
2022-08-05T14:23:25.433Z,5.75
2022-08-05T14:25:58.509Z,5.03
2022-08-05T14:28:30.839Z,4.00
2022-08-05T14:31:01.512Z,4.40
2022-08-05T14:33:57.059Z,3.60
2022-08-05T14:36:21.542Z,3.90
2022-08-05T14:38:49.642Z,4.05
2022-08-05T14:41:17.798Z,3.83
2022-08-05T14:44:00.073Z,2.25
2022-08-05T14:46:35.071Z,4.03
2022-08-05T14:49:07.482Z,2.22
2022-08-05T14:51:42.741Z,3.17
2022-08-05T14:54:28.440Z,6.25
2022-08-05T14:56:58.019Z,6.28
2022-08-05T14:59:29.217Z,2.03
2022-08-05T15:01:58.008Z,2.47
2022-08-05T15:04:27.406Z,6.03
2022-08-05T15:06:56.722Z,11.48
2022-08-05T15:09:52.141Z,3.33
2022-08-05T15:12:16.892Z,6.93
2022-08-05T15:14:55.311Z,2.78
2022-08-05T15:17:47.673Z,4.53
2022-08-05T15:20:18.592Z,3.55
2022-08-05T15:22:54.386Z,2.63
2022-08-05T15:25:51.205Z,2.00
2022-08-05T15:28:14.935Z,4.93
2022-08-05T15:30:45.881Z,1.98
2022-08-05T15:33:56.884Z,3.30
2022-08-05T15:36:04.443Z,1.85
2022-08-05T15:38:40.959Z,2.75
2022-08-05T15:41:22.985Z,2.40
2022-08-05T15:43:54.631Z,3.22
2022-08-05T15:46:24.472Z,2.88
2022-08-05T15:48:58.833Z,4.75
2022-08-05T15:52:04.022Z,3.45
2022-08-05T15:54:18.186Z,5.72
2022-08-05T15:56:45.759Z,4.10
2022-08-05T15:59:21.984Z,3.78
2022-08-05T16:01:53.136Z,2.20
2022-08-05T16:04:25.637Z,7.20
2022-08-05T16:06:55.726Z,5.47
2022-08-05T16:09:24.452Z,2.72
2022-08-05T16:11:54.168Z,3.38
2022-08-05T16:14:22.537Z,7.32
2022-08-05T16:16:54.442Z,4.47
2022-08-05T16:20:02.713Z,2.50
2022-08-05T16:22:10.910Z,9.85
2022-08-05T16:24:51.914Z,7.55
2022-08-05T16:27:47.147Z,3.15
2022-08-05T16:30:25.973Z,4.45
2022-08-05T16:33:00.887Z,5.60
2022-08-05T16:35:33.414Z,7.70
2022-08-05T16:38:24.279Z,5.65
2022-08-05T16:40:55.368Z,7.53
2022-08-05T16:43:30.956Z,13.38
2022-08-05T16:46:03.520Z,7.82
2022-08-05T16:48:36.451Z,9.68
2022-08-05T16:51:09.112Z,5.25
2022-08-05T16:54:03.124Z,6.82
2022-08-05T16:56:31.439Z,5.97
2022-08-05T16:59:00.894Z,15.57
2022-08-05T17:01:53.243Z,10.15
2022-08-05T17:04:23.906Z,3.55
2022-08-05T17:06:55.628Z,6.72
2022-08-05T17:09:24.550Z,3.17
2022-08-05T17:11:59.444Z,4.18
2022-08-05T17:14:36.942Z,3.35
2022-08-05T17:17:14.479Z,5.28
2022-08-05T17:19:53.858Z,6.82
2022-08-05T17:22:25.345Z,5.53
2022-08-05T17:24:58.814Z,2.50
2022-08-05T17:27:33.698Z,2.30
2022-08-05T17:30:03.118Z,8.73
2022-08-05T17:32:32.144Z,1.75
2022-08-05T17:35:04.524Z,2.95
2022-08-05T17:37:41.760Z,2.97
2022-08-05T17:40:15.528Z,4.07
2022-08-05T17:42:51.369Z,2.10
2022-08-05T17:45:22.659Z,2.25
2022-08-05T17:47:55.431Z,1.85
2022-08-05T17:50:29.962Z,2.80
2022-08-05T17:52:59.885Z,1.88
2022-08-05T17:55:38.311Z,4.53
2022-08-05T17:58:09.581Z,1.42
2022-08-05T18:00:44.295Z,2.08
2022-08-05T18:03:28.164Z,3.25
2022-08-05T18:06:14.953Z,2.95
2022-08-05T18:11:33.008Z,3.72
2022-08-05T18:14:07.525Z,9.43
2022-08-05T18:16:51.441Z,2.67
2022-08-05T18:19:23.030Z,5.03
2022-08-05T18:22:09.354Z,13.18
2022-08-05T18:24:39.949Z,7.82
2022-08-05T18:27:18.555Z,4.97
2022-08-05T18:29:53.545Z,6.40
2022-08-05T18:34:57.568Z,4.88
2022-08-05T18:37:34.825Z,3.25
2022-08-05T18:40:34.546Z,0.77
2022-08-05T18:42:57.062Z,1.38
2022-08-05T18:45:24.822Z,1.30
2022-08-05T18:47:56.800Z,3.10
2022-08-05T18:50:46.432Z,0.68
2022-08-05T18:53:20.615Z,1.95
2022-08-05T18:55:52.507Z,5.03
2022-08-05T18:58:26.973Z,3.22
2022-08-05T19:00:56.441Z,4.57
2022-08-05T19:03:55.614Z,0.80
2022-08-05T19:06:22.017Z,1.52
2022-08-05T19:08:58.607Z,2.17
2022-08-05T19:11:37.009Z,1.38
2022-08-05T19:14:44.808Z,2.17
2022-08-05T19:17:06.441Z,0.65
2022-08-05T19:19:35.445Z,0.70
2022-08-05T19:22:02.881Z,1.95
2022-08-05T19:24:34.843Z,1.27
2022-08-05T19:27:04.441Z,2.28
2022-08-05T19:29:36.181Z,2.90
2022-08-05T19:32:11.430Z,1.88
2022-08-05T19:34:39.757Z,1.40
2022-08-05T19:37:07.807Z,3.15
2022-08-05T19:39:45.659Z,2.83
2022-08-05T19:42:19.144Z,1.00
2022-08-05T19:45:06.102Z,5.72
2022-08-05T19:47:37.590Z,1.42
2022-08-05T19:50:07.924Z,4.65
2022-08-05T19:52:39.876Z,2.25
2022-08-05T19:56:11.601Z,3.58
2022-08-05T19:58:14.605Z,1.27
2022-08-05T20:00:43.270Z,3.35
2022-08-05T20:03:11.499Z,0.80
2022-08-05T20:05:49.775Z,3.83
2022-08-05T20:08:17.891Z,1.98
2022-08-05T20:10:45.310Z,1.77
2022-08-05T20:13:30.087Z,1.42
2022-08-05T20:16:08.825Z,1.02
2022-08-05T20:18:36.927Z,1.85
2022-08-05T20:21:06.740Z,0.68
2022-08-05T20:23:40.480Z,1.23
2022-08-05T20:26:23.319Z,2.35
2022-08-05T20:28:55.906Z,3.10
2022-08-05T20:31:36.846Z,2.55
2022-08-05T20:34:05.215Z,2.60
2022-08-05T20:36:32.718Z,0.63
2022-08-05T20:39:00.309Z,1.10
2022-08-05T20:41:43.277Z,1.88
2022-08-05T20:44:18.371Z,1.33
2022-08-05T20:46:47.560Z,5.03
2022-08-05T20:49:24.004Z,1.90
2022-08-05T20:51:54.236Z,1.45
2022-08-05T20:54:24.637Z,2.38
2022-08-05T20:56:53.299Z,2.60
2022-08-05T20:59:27.141Z,4.32
2022-08-05T21:02:09.415Z,0.80
2022-08-05T21:04:37.989Z,2.03
2022-08-05T21:07:05.823Z,0.47
2022-08-05T21:09:37.209Z,13.35
2022-08-05T21:12:20.143Z,5.90
2022-08-05T21:14:48.101Z,2.83
2022-08-05T21:17:15.537Z,3.60
2022-08-05T21:19:47.961Z,2.90
2022-08-05T21:22:23.267Z,2.47
2022-08-05T21:24:52.523Z,2.92
2022-08-05T21:27:24.930Z,2.85
2022-08-05T21:29:58.018Z,1.73
2022-08-05T21:32:29.538Z,1.25
2022-08-05T21:35:17.778Z,0.93
2022-08-05T21:37:47.203Z,1.52
2022-08-05T21:40:22.219Z,8.18
2022-08-05T21:42:52.002Z,0.80
2022-08-05T21:45:24.623Z,3.92
2022-08-05T21:47:57.778Z,0.57
2022-08-05T21:50:27.001Z,2.63
2022-08-05T21:52:58.943Z,2.22
2022-08-05T21:55:42.801Z,3.80
2022-08-05T21:58:19.737Z,2.85
2022-08-05T22:00:51.341Z,0.50
2022-08-05T22:03:20.575Z,2.45
2022-08-05T22:06:08.242Z,5.88
2022-08-05T22:08:35.775Z,1.65
2022-08-05T22:11:06.754Z,2.33
2022-08-05T22:14:31.256Z,1.02
2022-08-05T22:16:41.451Z,1.70
2022-08-05T22:19:57.064Z,1.17
2022-08-05T22:21:59.359Z,2.92
2022-08-05T22:24:52.532Z,3.83
2022-08-05T22:28:08.885Z,4.82
2022-08-05T22:30:35.186Z,0.82
2022-08-05T22:33:15.521Z,4.00
2022-08-05T22:35:48.633Z,8.20
2022-08-05T22:38:17.327Z,1.70
2022-08-05T22:40:49.532Z,0.77
2022-08-05T22:43:36.944Z,0.68
2022-08-05T22:46:13.090Z,4.28
2022-08-05T22:48:43.237Z,2.50
2022-08-05T22:51:22.435Z,5.32
2022-08-05T22:53:51.848Z,1.05
2022-08-05T22:56:29.739Z,1.48
2022-08-05T22:59:03.194Z,3.35
2022-08-05T23:02:04.015Z,2.53
2022-08-05T23:04:33.768Z,6.85
2022-08-05T23:07:01.210Z,4.60
2022-08-05T23:09:58.171Z,0.60
2022-08-05T23:12:18.308Z,1.48
2022-08-05T23:14:45.957Z,2.47
2022-08-05T23:17:34.466Z,3.15
2022-08-05T23:20:10.216Z,3.33
2022-08-05T23:22:47.612Z,2.28
2022-08-05T23:25:53.302Z,3.03
2022-08-05T23:28:07.134Z,3.35
2022-08-05T23:30:39.711Z,2.80
2022-08-05T23:33:22.377Z,3.92
2022-08-05T23:35:56.389Z,2.20
2022-08-05T23:38:26.826Z,7.53
2022-08-05T23:40:54.647Z,8.20
2022-08-05T23:43:25.245Z,0.98
2022-08-05T23:46:19.814Z,6.20
2022-08-05T23:48:59.943Z,1.90
2022-08-05T23:51:53.964Z,7.72
2022-08-05T23:54:25.636Z,1.38
2022-08-05T23:57:03.174Z,3.45
